Aérodrome :
LOGIN :

S'inscrire | Disclaimer

   EN    FR    IT 

 










Légende :    VFR   VFR Marginal   IFR   IFR Intensif   IFR Très Intensif
Visi : 
Plafond : 
>= 8 km
>= 3000ft
5 à 8 km
1000 à 3000 ft
1500m à 5 km
500 à 1000 ft
800 à 1500m
200 à 500 ft
< 800m
< 200 ft
Symboles :   Orages  Brouillard  Fortes neiges  Fortes précipitations  Vent > 20 kt
SIGMETs :   Divers  Orages  Givrage  Turbulence  Onde Orograph.  Cendres Volcan.






- Altitude de l'aérodrome : 296 ft
- Code IATA : GKE


ETNG - Geilenkirchen

DERNIER METAR :
  • 031950Z 32006KT CAVOK 19/09 Q1001

METARs EXPIRÉS :
  • 031850Z 32006KT CAVOK 20/09 Q1001
  • 031750Z 31007KT CAVOK 23/07 Q1001

TAF TAF ETNG
Valide du 03 à 21h jusqu'au 04 à 12h UTC


032000Z 0321/0412 29006KT CAVOK
BECMG 0402/0404 BKN016
BECMG 0404/0406 32005KT
PROB30
TEMPO 0407/0411 5000 -RADZ BKN012
BECMG 0410/0412 32010KT BKN022



MET'MAP, la Météo Aéronautique d'un coup d'oeil ! - Copyright ORBIFLY Décembre 2007 - Disclaimer

ORBIFLY MET'MAP TEAM :

Programmation & Développement : Alexandra Zaïnal
Sur une idée originale de : Baudouin d'Aumeries
Assistance à la programmation : Marc-Olivier Méhu
Soutien technique & logistique : Manuel Goepfert

Contact : metmap@orbifly.com




SOURCES & CREDITS :

   NOAA